Kendrick, ID (83537)

8:57 PM PDT on September 02, 2014 (GMT -0700)
Linden, Idaho (Cedar Ridge) | Change Station
CLOSE
Current Station
Personal Weather Station
Location: Kendrick, ID
Elevation: 2707 ft
Nearby Weather Stations

Elev 2707 ft 46.69 °N, 116.50 °W | Updated 2 seconds ago

Partly Cloudy
Partly Cloudy
66.7 °F
Feels Like 66.7 °F
N
2.0
Wind Variable Wind from ESE
Gusts 4.0 mph

Today
High -- | Low -- °F
--% Chance of Precip.
Yesterday
High -- | Low -- °F
Precip. -- in
6:07 AM 7:23 PM
First Quarter, 58% visible
Pressure 29.70 in
Visibility 10.0 miles
Clouds Few 10000 ft
Dew Point 40 °F
Humidity 38%
Rainfall 0.00 in
Snow Depth 0 in
UV 0 out of 12
Pollen 6.90 out of 12
Air Quality Not available.
Flu Activity Not available.
METAR KPUW 030353Z AUTO 24007KT 10SM FEW100 18/04 A2973 RMK AO2 SLP057 T01830039

More Conditions Fewer Conditions

Pressure 29.70 in
Visibility 10.0 miles
Clouds Few 10000 ft
Dew Point 40 °F
Humidity 38%
Rainfall 0.00 in
Snow Depth 0 in
UV 0 out of 12
Pollen 6.90 out of 12
Air Quality Not available.
Flu Activity Not available.
METAR KPUW 030353Z AUTO 24007KT 10SM FEW100 18/04 A2973 RMK AO2 SLP057 T01830039

More Conditions Fewer Conditions

10-Day Weather Forecast

Almanac

Astronomy

Sep. 02, 2014 Rise Set
Actual Time 6:07 AM PDT 7:23 PM PDT
Civil Twilight 5:36 AM PDT 7:54 PM PDT
Nautical Twilight 4:58 AM PDT 8:32 PM PDT
Astronomical Twilight 4:18 AM PDT 9:12 PM PDT
Moon 2:22 PM PDT (9/2) 11:55 PM PDT (9/2)
Length of Visible Light 14h 18m
Length of Day
13h 15m
Tomorrow will be 3m 12s shorter.
First Quarter, 58% of the Moon is Illuminated
Today
First Quarter
Sep 8
Full
Sep 15
Last Quarter
Sep 24
New
Oct 1
First Quarter

Today's Extremes

State Highs State Lows

Community

WunderPhotos

Upload Photos

1,749,867 photos uploaded!

Nearby

Snow Depth

Station Depth Elevation
Moscow Mountain 0 in 4700 ft
Elk Butte 0 in 5690 ft
Mica Creek 0 in 4750 ft
Lost Lake 0 in 6110 ft
Hemlock Butte 0 in 5810 ft

Earthquake Activity

City Distance Mag. Time & Date
Mullan, Idaho 68 miles 2.5 1:01 AM PDT
2014-08-31
Minimum magnitude displayed is 2.5.

Coastal Water Temperatures

Place Temperature
No Stations Reporting

Nearby Weather Stations